Time;durP1;ratioP1;P1;durP2;ratioP2;P2;SDS_P1;SDS_P2;PMS_P1;PMS_P2;Temp;Humidity;BMP_temperature;BMP_pressure;BME280_temperature;BME280_humidity;BME280_pressure;Samples;Min_cycle;Max_cycle;Signal;HPM_P1;HPM_P2
2023/06/10 00:00:00;;;;;;;6.90;5.13;;;;;;;19.96;60.25;94610.19;5084686;28;20032;-79
2023/06/10 00:02:28;;;;;;;7.30;4.75;;;;;;;19.97;60.12;94606.13;5085354;28;20101;-78
2023/06/10 00:04:54;;;;;;;8.48;5.25;;;;;;;19.92;60.43;94610.44;5086440;28;20027;-78
2023/06/10 00:07:19;;;;;;;6.35;4.70;;;;;;;19.91;60.25;94603.34;5088875;28;20119;-78
2023/06/10 00:09:45;;;;;;;8.75;5.63;;;;;;;19.88;60.32;94601.56;5085000;28;20032;-78
2023/06/10 00:12:10;;;;;;;9.35;5.57;;;;;;;19.86;60.62;94595.72;5084555;28;20085;-78
2023/06/10 00:14:37;;;;;;;9.07;5.85;;;;;;;19.81;60.78;94599.28;5086159;28;20024;-78
2023/06/10 00:17:03;;;;;;;8.48;6.28;;;;;;;19.76;61.16;94594.44;5084216;28;20024;-78
2023/06/10 00:19:30;;;;;;;8.02;6.38;;;;;;;19.75;61.29;94599.28;5068080;28;20065;-77
2023/06/10 00:21:56;;;;;;;9.23;6.55;;;;;;;19.71;61.15;94595.97;5084969;28;20024;-78
2023/06/10 00:24:22;;;;;;;9.07;6.55;;;;;;;19.66;61.73;94599.50;5085971;28;20028;-78
2023/06/10 00:26:47;;;;;;;8.85;6.88;;;;;;;19.45;62.67;94596.16;5088583;28;20546;-77
2023/06/10 00:29:14;;;;;;;14.52;6.88;;;;;;;19.47;62.73;94601.22;5089230;28;20099;-78
2023/06/10 00:31:39;;;;;;;7.30;6.60;;;;;;;19.49;62.86;94607.03;5084761;28;20060;-78
2023/06/10 00:34:05;;;;;;;8.32;6.80;;;;;;;19.17;63.92;94600.88;5084182;28;20044;-77
2023/06/10 00:36:30;;;;;;;10.27;7.22;;;;;;;18.97;64.26;94599.78;5086016;28;20059;-78
2023/06/10 00:38:56;;;;;;;8.43;7.00;;;;;;;19.02;63.96;94592.72;5085178;28;20035;-78
2023/06/10 00:41:22;;;;;;;7.60;6.60;;;;;;;19.02;64.03;94599.03;5084526;28;20032;-78
2023/06/10 00:43:48;;;;;;;7.75;6.28;;;;;;;19.07;63.93;94592.75;5085407;28;20089;-78
2023/06/10 00:46:13;;;;;;;7.65;6.32;;;;;;;19.11;63.61;94598.06;5085190;28;20062;-78
2023/06/10 00:48:42;;;;;;;9.00;7.28;;;;;;;18.66;65.46;94600.63;5089263;28;20028;-78
2023/06/10 00:51:11;;;;;;;8.00;7.15;;;;;;;18.51;66.00;94594.44;5085540;28;20068;-78
2023/06/10 00:53:39;;;;;;;8.93;7.20;;;;;;;18.44;66.21;94606.06;5084348;28;20081;-78
2023/06/10 00:56:05;;;;;;;10.60;7.88;;;;;;;18.44;66.29;94600.50;5084887;28;20024;-78
2023/06/10 00:58:31;;;;;;;9.27;7.22;;;;;;;18.47;66.45;94611.41;5086056;28;20077;-78
2023/06/10 01:00:57;;;;;;;10.43;7.18;;;;;;;18.63;65.92;94606.41;5084198;28;20450;-78
2023/06/10 01:03:23;;;;;;;9.38;6.97;;;;;;;18.70;65.85;94615.13;5084038;28;20028;-78
2023/06/10 01:05:55;;;;;;;9.27;7.35;;;;;;;18.76;65.63;94604.75;5085187;28;20127;-78
2023/06/10 01:08:38;;;;;;;9.30;7.15;;;;;;;18.87;65.70;94615.19;5083573;28;20042;-77
2023/06/10 01:11:04;;;;;;;8.75;7.25;;;;;;;18.84;65.84;94603.03;5084310;28;20085;-76
2023/06/10 01:13:32;;;;;;;10.60;8.20;;;;;;;19.02;65.88;94615.00;5083252;28;20566;-77
2023/06/10 01:15:58;;;;;;;9.10;7.65;;;;;;;19.08;66.11;94613.75;5083862;28;20020;-77
2023/06/10 01:18:30;;;;;;;9.60;7.50;;;;;;;19.14;66.20;94619.34;5085269;28;20032;-77
2023/06/10 01:20:56;;;;;;;10.37;7.93;;;;;;;19.19;65.95;94607.47;5083605;28;20494;-76
2023/06/10 01:23:22;;;;;;;7.97;6.90;;;;;;;19.22;66.18;94609.25;5083982;28;20079;-78
2023/06/10 01:26:07;;;;;;;9.25;7.28;;;;;;;19.28;65.71;94609.28;5084424;28;20518;-77
2023/06/10 01:28:36;;;;;;;8.82;6.97;;;;;;;19.28;65.79;94604.47;5084214;28;20020;-78
2023/06/10 01:31:15;;;;;;;7.85;6.15;;;;;;;19.28;65.62;94610.03;5087444;28;20024;-78
2023/06/10 01:33:47;;;;;;;9.63;6.93;;;;;;;19.34;65.98;94601.69;5088923;28;20097;-78
2023/06/10 01:36:13;;;;;;;8.60;5.87;;;;;;;19.37;65.79;94600.69;5083872;28;20028;-77
2023/06/10 01:38:44;;;;;;;9.27;6.75;;;;;;;19.43;65.93;94606.25;5084277;28;20122;-78
2023/06/10 01:41:11;;;;;;;10.50;6.43;;;;;;;19.45;65.75;94595.41;5089849;28;20024;-77
2023/06/10 01:43:38;;;;;;;8.48;6.30;;;;;;;19.48;65.21;94591.59;5092445;28;20066;-78
2023/06/10 01:46:03;;;;;;;7.97;5.90;;;;;;;19.49;65.47;94598.69;5089125;28;20020;-78
2023/06/10 01:48:29;;;;;;;7.53;6.05;;;;;;;19.52;65.42;94594.91;5087836;28;20023;-78
2023/06/10 01:50:55;;;;;;;8.57;6.88;;;;;;;19.49;64.48;94596.66;5089164;28;20039;-78
2023/06/10 01:53:22;;;;;;;8.60;6.88;;;;;;;19.37;64.61;94600.69;5089144;28;20059;-77
2023/06/10 01:55:47;;;;;;;7.32;6.07;;;;;;;19.40;64.61;94588.53;5087252;28;20028;-77
2023/06/10 01:58:13;;;;;;;7.28;6.55;;;;;;;19.39;64.63;94584.22;5088815;28;20032;-77
2023/06/10 02:00:38;;;;;;;6.70;6.00;;;;;;;19.41;64.53;94590.06;5088277;28;20107;-77
2023/06/10 02:03:03;;;;;;;7.15;6.05;;;;;;;19.38;64.74;94582.69;5089195;28;20028;-76
2023/06/10 02:05:29;;;;;;;9.88;6.10;;;;;;;19.43;64.50;94589.53;5088346;28;20371;-76
2023/06/10 02:07:54;;;;;;;9.15;6.28;;;;;;;19.45;64.55;94576.63;5089001;28;20032;-77
2023/06/10 02:10:20;;;;;;;8.75;5.85;;;;;;;19.46;64.71;94574.63;5089103;28;20099;-77
2023/06/10 02:12:45;;;;;;;8.90;6.30;;;;;;;19.49;64.30;94577.13;5087154;28;20051;-77
2023/06/10 02:15:10;;;;;;;7.63;6.50;;;;;;;19.51;64.71;94576.66;5088676;28;20039;-76
2023/06/10 02:17:36;;;;;;;8.82;6.47;;;;;;;19.49;64.72;94579.16;5088503;28;20372;-77
2023/06/10 02:20:04;;;;;;;8.38;6.10;;;;;;;19.51;65.14;94569.06;5088837;28;20024;-76
2023/06/10 02:22:29;;;;;;;10.07;6.47;;;;;;;19.54;65.09;94570.06;5087953;28;20024;-77
2023/06/10 02:24:55;;;;;;;11.02;6.88;;;;;;;19.53;64.61;94577.66;5088443;28;20022;-77
2023/06/10 02:27:20;;;;;;;8.88;6.32;;;;;;;19.52;64.42;94567.78;5086690;28;20088;-78
2023/06/10 02:29:45;;;;;;;7.88;6.43;;;;;;;19.53;64.40;94562.97;5088304;28;20028;-77
2023/06/10 02:32:11;;;;;;;8.25;6.32;;;;;;;19.55;64.66;94566.75;5088039;28;20027;-77
2023/06/10 02:34:36;;;;;;;7.93;6.60;;;;;;;19.48;64.61;94566.50;5088350;28;20069;-77
2023/06/10 02:37:02;;;;;;;7.28;6.22;;;;;;;19.49;65.01;94563.19;5096952;28;20046;-77
2023/06/10 02:39:28;;;;;;;8.27;6.72;;;;;;;19.50;65.40;94561.19;5090149;28;20461;-77
2023/06/10 02:41:53;;;;;;;8.75;6.50;;;;;;;19.47;64.79;94557.38;5088578;28;20567;-77
2023/06/10 02:44:19;;;;;;;8.15;6.82;;;;;;;19.44;64.61;94554.81;5086359;28;20023;-78
2023/06/10 02:46:44;;;;;;;10.02;6.53;;;;;;;19.45;64.46;94562.69;5088733;28;20566;-77
2023/06/10 02:49:11;;;;;;;10.07;7.00;;;;;;;19.48;65.17;94555.34;5086234;28;20043;-77
2023/06/10 02:51:36;;;;;;;9.60;7.68;;;;;;;19.50;65.74;94548.03;5086622;28;20024;-77
2023/06/10 02:54:02;;;;;;;8.75;7.00;;;;;;;19.51;65.32;94548.78;5087865;28;20020;-76
2023/06/10 02:56:27;;;;;;;8.95;7.07;;;;;;;19.33;64.85;94553.56;5087270;28;20085;-77
2023/06/10 02:58:53;;;;;;;8.90;6.63;;;;;;;19.36;64.77;94563.69;5087935;28;20092;-77
2023/06/10 03:01:18;;;;;;;10.30;7.30;;;;;;;19.39;65.69;94559.16;5086996;28;20367;-77
2023/06/10 03:03:46;;;;;;;13.27;7.20;;;;;;;19.43;65.97;94558.88;5086847;28;20055;-77
2023/06/10 03:06:12;;;;;;;11.20;7.28;;;;;;;19.44;66.12;94563.97;5085400;28;20465;-77
2023/06/10 03:08:38;;;;;;;8.63;7.40;;;;;;;19.46;66.49;94564.22;5086117;28;20031;-77
2023/06/10 03:11:04;;;;;;;10.30;8.65;;;;;;;19.46;66.83;94574.63;5087116;28;20024;-78
2023/06/10 03:13:29;;;;;;;8.60;7.70;;;;;;;19.48;66.46;94577.66;5087332;28;20024;-76
2023/06/10 03:15:54;;;;;;;8.48;7.57;;;;;;;19.47;66.36;94579.69;5087244;28;20467;-76
2023/06/10 03:18:20;;;;;;;10.95;8.32;;;;;;;19.46;66.91;94578.16;5086676;28;20324;-76
2023/06/10 03:20:45;;;;;;;9.18;7.50;;;;;;;19.48;66.85;94586.00;5087579;28;20052;-77
2023/06/10 03:23:11;;;;;;;11.15;8.82;;;;;;;19.42;67.03;94586.00;5086497;28;20038;-77
2023/06/10 03:25:38;;;;;;;11.07;8.77;;;;;;;19.41;67.27;94589.28;5086160;28;20031;-77
2023/06/10 03:28:03;;;;;;;10.40;8.07;;;;;;;19.36;67.33;94594.34;5085864;28;20055;-77
2023/06/10 03:30:29;;;;;;;11.32;8.60;;;;;;;19.33;67.44;94583.47;5091281;28;20028;-79
2023/06/10 03:32:54;;;;;;;10.95;9.02;;;;;;;19.37;67.20;94590.28;5086357;28;20032;-78
2023/06/10 03:35:20;;;;;;;9.43;8.13;;;;;;;19.28;67.08;94579.38;5086730;28;20099;-79
2023/06/10 03:37:45;;;;;;;10.88;8.65;;;;;;;19.29;67.35;94594.06;5087463;28;20020;-79
2023/06/10 03:40:11;;;;;;;8.55;7.72;;;;;;;19.38;67.55;94593.84;5088124;28;20467;-78
2023/06/10 03:42:36;;;;;;;10.02;8.00;;;;;;;19.40;67.07;94590.56;5094448;28;20085;-77
2023/06/10 03:45:03;;;;;;;11.30;8.07;;;;;;;19.41;67.33;94589.28;5086734;28;20083;-78
2023/06/10 03:47:34;;;;;;;10.35;8.40;;;;;;;19.44;66.53;94586.28;5086758;28;20028;-78
2023/06/10 03:50:00;;;;;;;9.18;8.20;;;;;;;19.41;66.46;94584.47;5087034;28;20112;-76
2023/06/10 03:52:25;;;;;;;11.45;8.27;;;;;;;19.45;66.36;94587.03;5086618;28;20486;-78
2023/06/10 03:54:50;;;;;;;9.90;7.90;;;;;;;19.43;66.43;94583.97;5086893;28;20439;-76
2023/06/10 03:57:16;;;;;;;9.60;8.27;;;;;;;19.41;66.63;94580.94;5085771;28;20032;-77
2023/06/10 03:59:41;;;;;;;11.40;9.07;;;;;;;19.40;66.40;94580.19;5087323;28;20496;-77
2023/06/10 04:02:08;;;;;;;10.75;8.52;;;;;;;19.41;66.36;94576.13;5085892;28;20019;-78
2023/06/10 04:04:34;;;;;;;9.68;7.90;;;;;;;19.41;66.43;94578.16;5085522;28;20122;-77
2023/06/10 04:06:59;;;;;;;9.75;7.80;;;;;;;19.37;66.18;94576.34;5086615;28;20186;-77
2023/06/10 04:09:25;;;;;;;9.52;7.75;;;;;;;19.41;66.19;94584.47;5086751;28;20471;-77
2023/06/10 04:11:51;;;;;;;8.50;7.32;;;;;;;19.43;66.37;94592.31;5086730;28;20024;-76
2023/06/10 04:14:16;;;;;;;9.80;7.40;;;;;;;19.43;66.10;94597.91;5087003;28;20044;-77
2023/06/10 04:16:42;;;;;;;11.73;7.80;;;;;;;19.43;66.29;94590.31;5087482;28;20410;-79
2023/06/10 04:19:08;;;;;;;8.88;7.38;;;;;;;19.46;66.33;94602.50;5085059;28;20020;-77
2023/06/10 04:21:33;;;;;;;8.82;6.38;;;;;;;19.47;66.23;94599.19;5086430;28;20016;-76
2023/06/10 04:23:59;;;;;;;7.07;6.35;;;;;;;19.50;65.86;94597.44;5089409;28;20050;-77
2023/06/10 04:26:25;;;;;;;10.02;7.07;;;;;;;19.52;65.67;94594.91;5087575;28;20448;-76
2023/06/10 04:28:51;;;;;;;8.77;6.70;;;;;;;19.51;66.01;94587.81;5084765;28;20039;-77
2023/06/10 04:31:16;;;;;;;7.32;6.57;;;;;;;19.53;66.12;94583.22;5084670;28;20020;-77
2023/06/10 04:33:41;;;;;;;10.35;6.63;;;;;;;19.56;65.48;94589.84;5085737;28;20027;-77
2023/06/10 04:36:07;;;;;;;7.60;6.43;;;;;;;19.57;65.53;94583.00;5085454;28;20106;-77
2023/06/10 04:38:32;;;;;;;9.80;6.35;;;;;;;19.56;65.40;94593.38;5086009;28;20020;-77
2023/06/10 04:40:58;;;;;;;9.85;6.68;;;;;;;19.60;65.27;94595.94;5085508;28;20104;-78
2023/06/10 04:43:23;;;;;;;8.40;6.80;;;;;;;19.60;65.52;94599.50;5086079;28;20471;-77
2023/06/10 04:45:49;;;;;;;7.72;6.32;;;;;;;19.62;65.57;94590.63;5089518;28;20016;-78
2023/06/10 04:48:15;;;;;;;8.05;6.72;;;;;;;19.68;65.50;94587.88;5086250;28;20518;-78
2023/06/10 04:50:40;;;;;;;10.25;6.55;;;;;;;19.73;65.22;94590.66;5084213;28;20028;-78
2023/06/10 04:53:09;;;;;;;8.50;6.68;;;;;;;19.74;65.34;94592.19;5085932;28;20018;-78
2023/06/10 04:55:34;;;;;;;8.70;6.32;;;;;;;19.77;64.71;94599.50;5084433;28;20028;-78
2023/06/10 04:57:59;;;;;;;8.10;5.88;;;;;;;19.79;64.84;94588.63;5083640;28;20417;-78
2023/06/10 05:00:25;;;;;;;8.32;6.10;;;;;;;19.84;64.42;94585.09;5085666;28;20031;-76
2023/06/10 05:02:51;;;;;;;9.27;6.00;;;;;;;19.87;64.49;94589.63;5084929;28;20028;-77
2023/06/10 05:05:17;;;;;;;7.10;5.43;;;;;;;19.88;63.88;94582.78;5084211;28;20024;-74
2023/06/10 05:07:43;;;;;;;6.07;5.45;;;;;;;19.86;63.74;94590.16;5085512;28;20024;-77
2023/06/10 05:10:08;;;;;;;7.28;5.78;;;;;;;19.86;63.56;94590.91;5085154;28;20028;-77
2023/06/10 05:12:34;;;;;;;8.15;5.90;;;;;;;19.67;63.98;94592.69;5085195;28;20025;-77
2023/06/10 05:14:59;;;;;;;8.27;6.30;;;;;;;19.65;64.16;94592.41;5084553;28;20124;-76
2023/06/10 05:17:25;;;;;;;10.57;6.38;;;;;;;19.49;64.98;94587.53;5089710;28;20111;-78
2023/06/10 05:19:51;;;;;;;8.32;6.25;;;;;;;19.44;65.14;94589.06;5085552;28;20038;-77
2023/06/10 05:22:17;;;;;;;7.80;6.60;;;;;;;19.44;65.59;94588.28;5085736;28;20103;-77
2023/06/10 05:24:43;;;;;;;12.98;6.55;;;;;;;19.43;65.43;94589.53;5084986;28;20323;-77
2023/06/10 05:27:09;;;;;;;7.55;6.50;;;;;;;19.47;65.45;94590.06;5085732;28;20499;-77
2023/06/10 05:29:35;;;;;;;8.85;6.68;;;;;;;19.54;65.36;94595.91;5084990;28;20027;-77
2023/06/10 05:32:02;;;;;;;9.38;6.03;;;;;;;19.60;65.53;94602.28;5066957;28;20401;-76
2023/06/10 05:34:29;;;;;;;10.07;7.03;;;;;;;19.65;65.42;94597.22;5085181;28;20085;-77
2023/06/10 05:36:54;;;;;;;9.25;6.72;;;;;;;19.78;65.35;94606.59;5084316;28;20024;-76
2023/06/10 05:39:20;;;;;;;7.32;5.75;;;;;;;19.86;65.00;94602.06;5085459;28;20013;-76
2023/06/10 05:41:46;;;;;;;6.40;5.80;;;;;;;19.99;64.86;94604.34;5084503;28;20464;-77
2023/06/10 05:44:11;;;;;;;9.32;6.07;;;;;;;20.05;64.48;94595.97;5085368;28;20555;-76
2023/06/10 05:46:37;;;;;;;11.45;6.88;;;;;;;20.16;63.57;94596.75;5084573;28;20021;-76
2023/06/10 05:49:02;;;;;;;9.35;6.32;;;;;;;20.22;63.70;94601.56;5086433;28;20145;-76
2023/06/10 05:51:28;;;;;;;7.13;6.40;;;;;;;20.25;63.80;94604.09;5086706;28;20024;-78
2023/06/10 05:53:54;;;;;;;7.95;6.38;;;;;;;20.29;63.45;94601.81;5083081;28;20466;-76
2023/06/10 05:56:21;;;;;;;8.70;6.15;;;;;;;20.34;63.79;94601.03;5085222;28;20035;-77
2023/06/10 05:58:46;;;;;;;9.40;6.25;;;;;;;20.40;63.13;94604.59;5082770;28;20340;-77
2023/06/10 06:01:12;;;;;;;7.07;5.95;;;;;;;20.49;62.79;94606.38;5085214;28;20504;-77
2023/06/10 06:03:37;;;;;;;7.63;6.13;;;;;;;20.59;61.89;94609.69;5084293;28;20611;-78
2023/06/10 06:06:03;;;;;;;6.22;5.50;;;;;;;20.62;61.67;94603.06;5084850;28;20047;-76
2023/06/10 06:08:29;;;;;;;7.20;5.53;;;;;;;20.61;62.01;94607.13;5084836;28;20468;-78
2023/06/10 06:10:54;;;;;;;9.18;5.55;;;;;;;20.66;61.78;94612.72;5070476;28;20028;-76
2023/06/10 06:13:19;;;;;;;8.13;5.88;;;;;;;20.72;61.50;94612.69;5085405;28;20605;-76
2023/06/10 06:15:45;;;;;;;10.25;5.85;;;;;;;20.85;61.02;94609.34;5084075;28;20027;-76
2023/06/10 06:18:10;;;;;;;7.45;5.82;;;;;;;20.93;61.09;94613.13;5084955;28;20038;-77
2023/06/10 06:20:36;;;;;;;8.18;5.78;;;;;;;20.95;61.08;94616.19;5084223;28;20025;-78
2023/06/10 06:23:01;;;;;;;8.18;6.18;;;;;;;21.04;60.83;94617.91;5083638;28;20024;-78
2023/06/10 06:25:27;;;;;;;7.25;6.43;;;;;;;21.08;60.64;94621.22;5084927;28;20028;-76
2023/06/10 06:27:52;;;;;;;11.25;6.72;;;;;;;21.14;60.55;94625.50;5087970;28;20115;-78
2023/06/10 06:30:18;;;;;;;11.05;6.53;;;;;;;21.20;60.49;94617.84;5087729;28;20039;-76
2023/06/10 06:32:43;;;;;;;8.23;5.45;;;;;;;21.25;60.47;94629.53;5094535;28;20020;-76
2023/06/10 06:35:08;;;;;;;8.90;6.18;;;;;;;21.35;60.04;94636.41;5101404;28;20032;-76
2023/06/10 06:37:34;;;;;;;8.10;6.28;;;;;;;21.39;59.48;94623.66;5087770;28;20454;-76
2023/06/10 06:40:00;;;;;;;11.77;7.22;;;;;;;21.44;59.84;94622.84;5087946;28;20217;-76
2023/06/10 06:42:25;;;;;;;7.07;6.18;;;;;;;21.50;59.92;94616.47;5087589;28;20123;-76
2023/06/10 06:44:51;;;;;;;10.68;6.63;;;;;;;21.54;59.80;94614.94;5087917;28;20482;-77
2023/06/10 06:47:19;;;;;;;12.88;7.78;;;;;;;21.56;59.59;94611.63;5087598;28;20062;-79
2023/06/10 06:49:45;;;;;;;13.35;8.63;;;;;;;21.55;59.61;94607.31;5085997;28;20032;-76
2023/06/10 06:52:17;;;;;;;12.18;7.75;;;;;;;21.56;59.77;94603.22;5087902;28;20020;-78
2023/06/10 06:54:42;;;;;;;9.65;6.85;;;;;;;21.61;59.65;94594.81;5093033;28;20035;-79
2023/06/10 06:57:08;;;;;;;11.27;5.50;;;;;;;21.70;58.91;94600.09;5086167;28;20032;-78
2023/06/10 06:59:33;;;;;;;7.70;5.60;;;;;;;21.72;58.18;94597.53;5087056;28;20074;-76
2023/06/10 07:01:59;;;;;;;10.02;7.88;;;;;;;21.74;58.44;94597.78;5087559;28;20410;-78
2023/06/10 07:04:24;;;;;;;13.55;10.00;;;;;;;21.84;57.41;94594.66;5091242;28;20031;-78
2023/06/10 07:06:50;;;;;;;8.00;6.60;;;;;;;21.89;57.86;94597.41;5086409;28;20418;-76
2023/06/10 07:09:15;;;;;;;12.30;6.97;;;;;;;22.03;57.51;94589.94;5087375;28;20477;-78
2023/06/10 07:11:40;;;;;;;9.80;5.50;;;;;;;22.12;57.59;94595.25;5087170;28;20023;-77
2023/06/10 07:14:06;;;;;;;7.00;5.32;;;;;;;22.13;57.06;94587.59;5085967;28;20028;-77
2023/06/10 07:16:32;;;;;;;7.03;4.78;;;;;;;22.25;56.48;94583.41;5086595;28;20031;-77
2023/06/10 07:18:57;;;;;;;7.18;4.53;;;;;;;22.40;53.79;94583.03;5087594;28;20035;-77
2023/06/10 07:21:23;;;;;;;6.50;3.90;;;;;;;22.60;50.93;94576.25;5085479;28;20059;-77
2023/06/10 07:23:49;;;;;;;6.45;4.05;;;;;;;22.69;51.85;94573.84;5085966;28;20046;-78
2023/06/10 07:26:14;;;;;;;6.22;4.20;;;;;;;22.82;50.52;94578.03;5068541;28;20027;-78
2023/06/10 07:28:43;;;;;;;7.45;4.15;;;;;;;22.97;49.69;94576.34;5085575;28;20020;-77
2023/06/10 07:31:08;;;;;;;6.82;4.43;;;;;;;23.04;49.06;94578.56;5086616;28;20034;-77
2023/06/10 07:33:34;;;;;;;4.88;3.60;;;;;;;23.16;47.92;94578.44;5084833;28;20107;-78
2023/06/10 07:36:00;;;;;;;5.53;3.67;;;;;;;23.28;48.32;94583.38;5086219;28;20020;-77
2023/06/10 07:38:26;;;;;;;7.63;4.50;;;;;;;23.47;48.03;94583.38;5086024;28;20458;-77
2023/06/10 07:40:51;;;;;;;5.65;3.85;;;;;;;23.56;48.72;94583.00;5086152;28;20515;-77
2023/06/10 07:43:17;;;;;;;6.40;3.97;;;;;;;23.66;48.58;94571.41;5086467;28;20024;-77
2023/06/10 07:45:43;;;;;;;4.85;3.65;;;;;;;23.75;47.93;94580.22;5085178;28;20118;-78
2023/06/10 07:48:09;;;;;;;8.05;4.25;;;;;;;23.94;47.37;94576.63;5086647;28;20013;-78
2023/06/10 07:50:34;;;;;;;5.60;3.65;;;;;;;24.07;47.27;94574.59;5086222;28;20430;-77
2023/06/10 07:53:00;;;;;;;4.88;4.03;;;;;;;24.18;46.42;94576.47;5086379;28;20028;-77
2023/06/10 07:55:28;;;;;;;5.50;4.10;;;;;;;24.24;46.55;94576.38;5086164;28;20380;-77
2023/06/10 07:57:54;;;;;;;6.82;3.97;;;;;;;24.36;47.41;94575.69;5093849;28;20083;-77
2023/06/10 08:00:20;;;;;;;6.68;4.72;;;;;;;24.41;47.30;94574.09;5086305;28;20059;-77
2023/06/10 08:02:45;;;;;;;7.03;4.85;;;;;;;24.51;47.27;94569.56;5086650;28;20071;-77
2023/06/10 08:05:11;;;;;;;7.32;4.75;;;;;;;24.61;46.80;94567.09;5086031;28;20491;-77
2023/06/10 08:07:36;;;;;;;5.47;3.85;;;;;;;24.67;45.44;94572.63;5086063;28;20169;-77
2023/06/10 08:10:02;;;;;;;6.80;3.70;;;;;;;24.68;45.33;94574.13;5084542;28;20120;-76
2023/06/10 08:12:28;;;;;;;5.93;3.92;;;;;;;24.78;44.83;94572.41;5084152;28;20074;-77
2023/06/10 08:14:54;;;;;;;5.22;3.67;;;;;;;24.77;44.69;94566.00;5086257;28;20052;-76
2023/06/10 08:17:20;;;;;;;6.65;4.40;;;;;;;24.79;45.32;94562.69;5085325;28;20068;-77
2023/06/10 08:19:45;;;;;;;5.03;3.60;;;;;;;24.75;44.81;94563.00;5084932;28;20051;-76
2023/06/10 08:22:12;;;;;;;6.25;3.42;;;;;;;24.71;44.63;94556.94;5085195;28;20024;-77
2023/06/10 08:24:38;;;;;;;4.15;3.30;;;;;;;24.73;44.73;94556.41;5085841;28;20026;-77
2023/06/10 08:27:03;;;;;;;4.93;3.05;;;;;;;24.79;44.84;94557.81;5084286;28;20024;-76
2023/06/10 08:29:31;;;;;;;6.35;3.83;;;;;;;24.88;44.92;94546.13;5085703;28;20028;-77
2023/06/10 08:31:56;;;;;;;6.85;4.72;;;;;;;24.86;44.90;94545.91;5085978;28;20020;-77
2023/06/10 08:34:21;;;;;;;9.30;4.43;;;;;;;24.96;44.52;94543.44;5084774;28;20036;-77
2023/06/10 08:36:47;;;;;;;8.52;6.10;;;;;;;25.06;44.61;94549.38;5085620;28;20059;-77
2023/06/10 08:39:12;;;;;;;8.82;5.20;;;;;;;25.19;44.21;94543.00;5066531;28;20446;-77
2023/06/10 08:41:43;;;;;;;6.72;4.07;;;;;;;25.27;43.56;94553.03;5084247;28;20077;-77
2023/06/10 08:44:15;;;;;;;6.80;4.15;;;;;;;25.46;43.14;94543.69;5083740;28;20486;-76
2023/06/10 08:46:43;;;;;;;7.55;4.20;;;;;;;25.55;42.80;94546.06;5091774;28;20035;-77
2023/06/10 08:49:09;;;;;;;6.10;3.53;;;;;;;25.67;41.34;94539.63;5085140;28;20107;-77
2023/06/10 08:51:36;;;;;;;5.45;4.30;;;;;;;25.67;41.08;94536.06;5087853;28;20043;-76
2023/06/10 08:54:04;;;;;;;6.40;4.30;;;;;;;25.72;40.82;94538.00;5084926;28;20024;-76
2023/06/10 08:56:35;;;;;;;5.90;3.70;;;;;;;25.77;40.33;94537.16;5066028;28;20419;-77
2023/06/10 08:59:01;;;;;;;7.07;5.22;;;;;;;25.71;40.37;94533.66;5084120;28;20024;-77
2023/06/10 09:01:27;;;;;;;6.50;3.83;;;;;;;25.80;40.58;94530.41;5089978;28;20494;-76
2023/06/10 09:03:53;;;;;;;7.72;5.15;;;;;;;25.97;40.51;94530.00;5088224;28;20035;-76
2023/06/10 09:06:18;;;;;;;7.35;4.07;;;;;;;26.09;40.62;94524.84;5083384;28;20388;-77
2023/06/10 09:08:43;;;;;;;6.00;3.70;;;;;;;26.24;40.42;94527.06;5084635;28;20098;-77
2023/06/10 09:11:09;;;;;;;7.00;3.80;;;;;;;26.42;40.25;94526.84;5085228;28;20498;-76
2023/06/10 09:13:34;;;;;;;5.95;3.58;;;;;;;26.56;40.22;94533.16;5082925;28;20024;-76
2023/06/10 09:16:01;;;;;;;3.75;3.03;;;;;;;26.64;39.84;94525.50;5084046;28;20020;-77
2023/06/10 09:18:28;;;;;;;3.65;2.78;;;;;;;26.71;38.44;94518.41;5084517;28;20044;-76
2023/06/10 09:20:53;;;;;;;3.75;2.75;;;;;;;26.81;38.50;94519.41;5085257;28;20106;-76
2023/06/10 09:23:19;;;;;;;5.40;2.75;;;;;;;26.95;38.49;94512.38;5083482;28;20058;-76
2023/06/10 09:25:44;;;;;;;4.57;2.90;;;;;;;27.14;37.11;94517.00;5066952;28;20055;-76
2023/06/10 09:28:14;;;;;;;6.15;2.60;;;;;;;27.31;36.72;94516.50;5085022;28;20540;-77
2023/06/10 09:30:40;;;;;;;3.75;2.70;;;;;;;27.33;36.96;94511.06;5083168;28;20429;-77
2023/06/10 09:33:15;;;;;;;5.93;3.40;;;;;;;27.45;37.29;94515.81;5085071;28;20020;-77
2023/06/10 09:35:48;;;;;;;5.70;2.90;;;;;;;27.56;35.66;94509.06;5085001;28;20016;-76
2023/06/10 09:38:16;;;;;;;3.45;2.60;;;;;;;27.58;33.72;94509.25;5084956;28;20071;-76
2023/06/10 09:40:51;;;;;;;3.35;2.45;;;;;;;27.67;33.54;94502.31;5083242;28;20076;-78
2023/06/10 09:43:16;;;;;;;3.38;2.25;;;;;;;27.75;33.53;94498.22;5084652;28;20051;-76
2023/06/10 09:45:43;;;;;;;5.00;2.40;;;;;;;27.96;33.48;94497.31;5090009;28;20494;-76
2023/06/10 09:48:08;;;;;;;4.22;2.25;;;;;;;28.11;33.13;94488.13;5084503;28;20065;-76
2023/06/10 09:50:34;;;;;;;4.55;2.90;;;;;;;28.23;33.27;94487.16;5084957;28;20404;-76
2023/06/10 09:53:02;;;;;;;2.97;2.50;;;;;;;28.41;33.71;94487.38;5083575;28;20055;-76
2023/06/10 09:55:28;;;;;;;4.43;2.67;;;;;;;28.58;33.77;94482.63;5083219;28;20052;-76
2023/06/10 09:57:54;;;;;;;5.93;3.95;;;;;;;28.83;33.31;94488.44;5084348;28;20515;-76
2023/06/10 10:00:19;;;;;;;4.63;2.92;;;;;;;28.94;33.39;94481.66;5086780;28;20028;-76
2023/06/10 10:02:50;;;;;;;3.45;2.88;;;;;;;29.15;33.09;94480.66;5087052;28;20398;-76
2023/06/10 10:05:17;;;;;;;4.95;3.10;;;;;;;29.34;32.98;94480.94;5090708;28;20144;-76
2023/06/10 10:07:45;;;;;;;5.90;3.28;;;;;;;29.53;32.39;94481.22;5091555;28;20063;-76
2023/06/10 10:10:13;;;;;;;2.90;2.25;;;;;;;29.71;31.43;94479.28;5086672;28;20454;-76
2023/06/10 10:12:39;;;;;;;3.05;2.20;;;;;;;29.96;30.88;94481.38;5088336;28;20424;-76
2023/06/10 10:15:08;;;;;;;3.08;2.30;;;;;;;30.15;30.43;94470.28;5086742;28;20097;-76
2023/06/10 10:17:35;;;;;;;3.42;2.50;;;;;;;30.41;30.50;94469.72;5088021;28;20032;-74
2023/06/10 10:20:05;;;;;;;6.53;3.17;;;;;;;30.65;29.93;94470.25;5087048;28;20093;-75
2023/06/10 10:22:37;;;;;;;4.38;3.03;;;;;;;30.91;29.21;94468.84;5087789;28;20516;-76
2023/06/10 10:25:08;;;;;;;3.65;2.00;;;;;;;30.90;29.17;94473.03;5087233;28;20035;-74
2023/06/10 10:27:36;;;;;;;5.55;3.03;;;;;;;31.09;29.03;94464.69;5088023;28;20127;-75
2023/06/10 10:30:08;;;;;;;3.92;2.83;;;;;;;31.25;28.75;94456.00;5087233;28;20024;-77
2023/06/10 10:32:52;;;;;;;4.15;2.97;;;;;;;31.32;28.83;94455.94;5088180;28;20028;-75
2023/06/10 10:35:21;;;;;;;5.30;2.60;;;;;;;31.51;28.41;94454.56;5087456;28;20031;-75
2023/06/10 10:37:46;;;;;;;3.30;2.35;;;;;;;31.61;28.26;94455.38;5088283;28;20024;-75
2023/06/10 10:40:12;;;;;;;5.07;2.40;;;;;;;31.78;27.78;94454.56;5090116;28;20042;-75
2023/06/10 10:42:38;;;;;;;6.78;2.78;;;;;;;31.93;27.96;94438.03;5086696;28;20020;-75
2023/06/10 10:45:04;;;;;;;2.80;2.30;;;;;;;32.04;27.39;94448.13;5088155;28;20390;-76
2023/06/10 10:47:30;;;;;;;2.67;2.13;;;;;;;32.04;26.14;94444.53;5086540;28;20049;-75
2023/06/10 10:49:59;;;;;;;5.80;2.90;;;;;;;31.87;27.16;94440.41;5086415;28;20016;-75
2023/06/10 10:52:24;;;;;;;3.13;2.20;;;;;;;31.91;27.29;94440.75;5085837;28;20115;-76
2023/06/10 10:54:53;;;;;;;4.82;2.20;;;;;;;31.91;25.79;94440.00;5085737;28;20542;-75
2023/06/10 10:57:20;;;;;;;4.10;2.40;;;;;;;31.82;26.29;94438.59;5086843;28;20028;-76
2023/06/10 10:59:48;;;;;;;2.67;2.05;;;;;;;31.66;26.57;94434.47;5087908;28;20032;-75
2023/06/10 11:02:45;;;;;;;3.08;2.17;;;;;;;31.57;26.41;94433.06;5087332;28;20455;-77
2023/06/10 11:05:14;;;;;;;2.70;1.98;;;;;;;31.56;27.47;94427.97;5087341;28;20028;-75
2023/06/10 11:07:40;;;;;;;5.65;2.97;;;;;;;31.80;27.72;94427.09;5085868;28;20036;-77
2023/06/10 11:10:05;;;;;;;5.35;2.58;;;;;;;31.91;28.15;94428.63;5092096;28;20031;-78
2023/06/10 11:12:46;;;;;;;6.13;2.80;;;;;;;31.71;28.30;94422.06;5088281;28;20024;-78
2023/06/10 11:15:12;;;;;;;4.70;2.60;;;;;;;31.84;28.11;94420.97;5087791;28;20024;-77
2023/06/10 11:17:38;;;;;;;3.40;2.55;;;;;;;31.97;27.61;94420.56;5086985;28;20089;-75
2023/06/10 11:20:03;;;;;;;4.85;2.70;;;;;;;31.80;28.75;94404.34;5086001;28;20024;-76
2023/06/10 11:22:29;;;;;;;3.25;2.33;;;;;;;31.76;28.59;94406.09;5087042;28;20107;-77
2023/06/10 11:24:55;;;;;;;3.60;2.53;;;;;;;31.70;28.52;94409.94;5087163;28;20021;-76
2023/06/10 11:27:21;;;;;;;3.22;2.72;;;;;;;31.55;28.62;94401.66;5086628;28;20051;-77